sensor_id;sensor_type;location;lat;lon;timestamp;P1;durP1;ratioP1;P2;durP2;ratioP2
26953;SDS011;14508;50.924;11.600;2023-06-04T00:01:27;6.80;;;3.25;;
26953;SDS011;14508;50.924;11.600;2023-06-04T00:03:55;8.30;;;3.63;;
26953;SDS011;14508;50.924;11.600;2023-06-04T00:06:23;11.73;;;3.25;;
26953;SDS011;14508;50.924;11.600;2023-06-04T00:08:51;4.68;;;2.75;;
26953;SDS011;14508;50.924;11.600;2023-06-04T00:11:20;6.30;;;2.88;;
26953;SDS011;14508;50.924;11.600;2023-06-04T00:13:49;10.65;;;3.28;;
26953;SDS011;14508;50.924;11.600;2023-06-04T00:16:17;6.30;;;3.10;;
26953;SDS011;14508;50.924;11.600;2023-06-04T00:18:45;6.72;;;3.22;;
26953;SDS011;14508;50.924;11.600;2023-06-04T00:21:12;6.75;;;3.28;;
26953;SDS011;14508;50.924;11.600;2023-06-04T00:23:40;8.70;;;3.10;;
26953;SDS011;14508;50.924;11.600;2023-06-04T00:26:09;7.72;;;3.30;;
26953;SDS011;14508;50.924;11.600;2023-06-04T00:28:42;10.30;;;3.13;;
26953;SDS011;14508;50.924;11.600;2023-06-04T00:31:10;6.80;;;2.92;;
26953;SDS011;14508;50.924;11.600;2023-06-04T00:33:39;5.00;;;2.10;;
26953;SDS011;14508;50.924;11.600;2023-06-04T00:36:07;3.83;;;2.28;;
26953;SDS011;14508;50.924;11.600;2023-06-04T00:38:35;5.30;;;2.78;;
26953;SDS011;14508;50.924;11.600;2023-06-04T00:41:03;5.07;;;2.33;;
26953;SDS011;14508;50.924;11.600;2023-06-04T00:43:31;7.25;;;2.47;;
26953;SDS011;14508;50.924;11.600;2023-06-04T00:46:01;7.95;;;2.97;;
26953;SDS011;14508;50.924;11.600;2023-06-04T00:48:29;9.40;;;2.70;;
26953;SDS011;14508;50.924;11.600;2023-06-04T00:50:57;5.28;;;2.40;;
26953;SDS011;14508;50.924;11.600;2023-06-04T00:53:26;4.15;;;2.38;;
26953;SDS011;14508;50.924;11.600;2023-06-04T00:55:53;9.18;;;2.63;;
26953;SDS011;14508;50.924;11.600;2023-06-04T00:58:21;7.22;;;2.33;;
26953;SDS011;14508;50.924;11.600;2023-06-04T01:00:51;6.70;;;2.78;;
26953;SDS011;14508;50.924;11.600;2023-06-04T01:03:24;2.97;;;1.98;;
26953;SDS011;14508;50.924;11.600;2023-06-04T01:06:00;4.75;;;2.40;;
26953;SDS011;14508;50.924;11.600;2023-06-04T01:08:37;4.57;;;2.30;;
26953;SDS011;14508;50.924;11.600;2023-06-04T01:11:09;4.95;;;2.35;;
26953;SDS011;14508;50.924;11.600;2023-06-04T01:13:37;5.53;;;2.28;;
26953;SDS011;14508;50.924;11.600;2023-06-04T01:16:05;3.63;;;1.95;;
26953;SDS011;14508;50.924;11.600;2023-06-04T01:18:35;3.00;;;2.03;;
26953;SDS011;14508;50.924;11.600;2023-06-04T01:21:06;5.82;;;2.75;;
26953;SDS011;14508;50.924;11.600;2023-06-04T01:23:40;6.68;;;2.25;;
26953;SDS011;14508;50.924;11.600;2023-06-04T01:26:13;6.17;;;2.40;;
26953;SDS011;14508;50.924;11.600;2023-06-04T01:28:41;5.47;;;2.17;;
26953;SDS011;14508;50.924;11.600;2023-06-04T01:31:11;6.88;;;2.20;;
26953;SDS011;14508;50.924;11.600;2023-06-04T01:33:40;4.95;;;2.33;;
26953;SDS011;14508;50.924;11.600;2023-06-04T01:36:08;6.38;;;2.15;;
26953;SDS011;14508;50.924;11.600;2023-06-04T01:38:38;6.18;;;2.70;;
26953;SDS011;14508;50.924;11.600;2023-06-04T01:41:06;11.13;;;2.33;;
26953;SDS011;14508;50.924;11.600;2023-06-04T01:43:34;5.90;;;2.40;;
26953;SDS011;14508;50.924;11.600;2023-06-04T01:46:02;5.30;;;2.08;;
26953;SDS011;14508;50.924;11.600;2023-06-04T01:48:31;6.03;;;1.90;;
26953;SDS011;14508;50.924;11.600;2023-06-04T01:51:00;4.15;;;1.98;;
26953;SDS011;14508;50.924;11.600;2023-06-04T01:53:29;3.72;;;1.95;;
26953;SDS011;14508;50.924;11.600;2023-06-04T01:55:58;5.35;;;1.80;;
26953;SDS011;14508;50.924;11.600;2023-06-04T01:58:27;3.80;;;1.90;;
26953;SDS011;14508;50.924;11.600;2023-06-04T02:00:56;2.65;;;1.83;;
26953;SDS011;14508;50.924;11.600;2023-06-04T02:03:26;3.28;;;1.77;;
26953;SDS011;14508;50.924;11.600;2023-06-04T02:05:54;3.35;;;1.90;;
26953;SDS011;14508;50.924;11.600;2023-06-04T02:08:24;5.90;;;1.83;;
26953;SDS011;14508;50.924;11.600;2023-06-04T02:10:53;4.07;;;2.25;;
26953;SDS011;14508;50.924;11.600;2023-06-04T02:13:21;3.33;;;1.90;;
26953;SDS011;14508;50.924;11.600;2023-06-04T02:15:49;4.97;;;2.03;;
26953;SDS011;14508;50.924;11.600;2023-06-04T02:18:17;4.45;;;2.03;;
26953;SDS011;14508;50.924;11.600;2023-06-04T02:20:49;7.53;;;2.33;;
26953;SDS011;14508;50.924;11.600;2023-06-04T02:23:17;6.18;;;2.10;;
26953;SDS011;14508;50.924;11.600;2023-06-04T02:25:47;5.35;;;2.25;;
26953;SDS011;14508;50.924;11.600;2023-06-04T02:28:16;2.90;;;1.48;;
26953;SDS011;14508;50.924;11.600;2023-06-04T02:30:44;5.07;;;1.77;;
26953;SDS011;14508;50.924;11.600;2023-06-04T02:33:12;5.25;;;2.00;;
26953;SDS011;14508;50.924;11.600;2023-06-04T02:35:41;4.18;;;1.90;;
26953;SDS011;14508;50.924;11.600;2023-06-04T02:38:11;3.95;;;2.15;;
26953;SDS011;14508;50.924;11.600;2023-06-04T02:40:39;3.85;;;1.83;;
26953;SDS011;14508;50.924;11.600;2023-06-04T02:43:08;3.17;;;1.88;;
26953;SDS011;14508;50.924;11.600;2023-06-04T02:45:36;3.58;;;1.75;;
26953;SDS011;14508;50.924;11.600;2023-06-04T02:48:04;7.10;;;2.03;;
26953;SDS011;14508;50.924;11.600;2023-06-04T02:50:32;5.80;;;2.22;;
26953;SDS011;14508;50.924;11.600;2023-06-04T02:53:01;3.88;;;1.88;;
26953;SDS011;14508;50.924;11.600;2023-06-04T02:55:29;3.50;;;1.77;;
26953;SDS011;14508;50.924;11.600;2023-06-04T02:57:57;6.25;;;2.15;;
26953;SDS011;14508;50.924;11.600;2023-06-04T03:00:26;5.28;;;1.65;;
26953;SDS011;14508;50.924;11.600;2023-06-04T03:02:54;8.25;;;2.65;;
26953;SDS011;14508;50.924;11.600;2023-06-04T03:05:27;6.30;;;2.65;;
26953;SDS011;14508;50.924;11.600;2023-06-04T03:07:58;5.75;;;2.42;;
26953;SDS011;14508;50.924;11.600;2023-06-04T03:10:28;3.85;;;2.10;;
26953;SDS011;14508;50.924;11.600;2023-06-04T03:12:57;5.30;;;2.42;;
26953;SDS011;14508;50.924;11.600;2023-06-04T03:15:26;3.53;;;2.10;;
26953;SDS011;14508;50.924;11.600;2023-06-04T03:17:54;3.90;;;1.83;;
26953;SDS011;14508;50.924;11.600;2023-06-04T03:20:23;3.80;;;1.70;;
26953;SDS011;14508;50.924;11.600;2023-06-04T03:22:51;7.38;;;2.20;;
26953;SDS011;14508;50.924;11.600;2023-06-04T03:25:19;3.97;;;1.92;;
26953;SDS011;14508;50.924;11.600;2023-06-04T03:27:47;3.28;;;1.52;;
26953;SDS011;14508;50.924;11.600;2023-06-04T03:30:16;3.95;;;1.92;;
26953;SDS011;14508;50.924;11.600;2023-06-04T03:33:00;3.35;;;2.30;;
26953;SDS011;14508;50.924;11.600;2023-06-04T03:35:29;8.73;;;1.67;;
26953;SDS011;14508;50.924;11.600;2023-06-04T03:37:57;3.95;;;1.65;;
26953;SDS011;14508;50.924;11.600;2023-06-04T03:40:26;4.97;;;2.72;;
26953;SDS011;14508;50.924;11.600;2023-06-04T03:42:54;7.75;;;1.98;;
26953;SDS011;14508;50.924;11.600;2023-06-04T03:45:26;8.30;;;2.00;;
26953;SDS011;14508;50.924;11.600;2023-06-04T03:47:55;8.48;;;2.15;;
26953;SDS011;14508;50.924;11.600;2023-06-04T03:50:25;3.60;;;1.60;;
26953;SDS011;14508;50.924;11.600;2023-06-04T03:52:54;7.35;;;2.28;;
26953;SDS011;14508;50.924;11.600;2023-06-04T03:55:23;4.43;;;1.77;;
26953;SDS011;14508;50.924;11.600;2023-06-04T03:57:52;10.40;;;2.22;;
26953;SDS011;14508;50.924;11.600;2023-06-04T04:00:19;4.47;;;1.90;;
26953;SDS011;14508;50.924;11.600;2023-06-04T04:02:51;5.93;;;2.03;;
26953;SDS011;14508;50.924;11.600;2023-06-04T04:05:25;4.53;;;1.80;;
26953;SDS011;14508;50.924;11.600;2023-06-04T04:07:53;10.98;;;1.83;;
26953;SDS011;14508;50.924;11.600;2023-06-04T04:10:24;6.13;;;2.28;;
26953;SDS011;14508;50.924;11.600;2023-06-04T04:12:52;3.67;;;2.00;;
26953;SDS011;14508;50.924;11.600;2023-06-04T04:15:21;5.65;;;2.17;;
26953;SDS011;14508;50.924;11.600;2023-06-04T04:17:51;4.45;;;1.95;;
26953;SDS011;14508;50.924;11.600;2023-06-04T04:20:19;6.25;;;2.17;;
26953;SDS011;14508;50.924;11.600;2023-06-04T04:25:25;4.55;;;2.20;;
26953;SDS011;14508;50.924;11.600;2023-06-04T04:27:54;5.53;;;2.35;;
26953;SDS011;14508;50.924;11.600;2023-06-04T04:30:24;4.30;;;2.30;;
26953;SDS011;14508;50.924;11.600;2023-06-04T04:32:52;4.68;;;2.08;;
26953;SDS011;14508;50.924;11.600;2023-06-04T04:35:31;4.93;;;2.20;;
26953;SDS011;14508;50.924;11.600;2023-06-04T04:38:04;5.05;;;2.30;;
26953;SDS011;14508;50.924;11.600;2023-06-04T04:40:38;4.60;;;2.45;;
26953;SDS011;14508;50.924;11.600;2023-06-04T04:43:08;8.20;;;2.88;;
26953;SDS011;14508;50.924;11.600;2023-06-04T04:45:37;5.15;;;2.38;;
26953;SDS011;14508;50.924;11.600;2023-06-04T04:48:08;5.90;;;2.55;;
26953;SDS011;14508;50.924;11.600;2023-06-04T04:50:36;5.00;;;2.83;;
26953;SDS011;14508;50.924;11.600;2023-06-04T04:53:06;6.30;;;2.55;;
26953;SDS011;14508;50.924;11.600;2023-06-04T04:55:35;11.13;;;4.05;;
26953;SDS011;14508;50.924;11.600;2023-06-04T04:58:03;7.22;;;3.25;;
26953;SDS011;14508;50.924;11.600;2023-06-04T05:00:32;5.65;;;2.65;;
26953;SDS011;14508;50.924;11.600;2023-06-04T05:03:01;6.10;;;2.95;;
26953;SDS011;14508;50.924;11.600;2023-06-04T05:05:29;5.20;;;2.40;;
26953;SDS011;14508;50.924;11.600;2023-06-04T05:07:57;7.43;;;3.30;;
26953;SDS011;14508;50.924;11.600;2023-06-04T05:10:32;6.10;;;3.40;;
26953;SDS011;14508;50.924;11.600;2023-06-04T05:13:03;9.95;;;2.83;;
26953;SDS011;14508;50.924;11.600;2023-06-04T05:15:40;6.85;;;2.97;;
26953;SDS011;14508;50.924;11.600;2023-06-04T05:18:10;5.60;;;2.60;;
26953;SDS011;14508;50.924;11.600;2023-06-04T05:20:39;9.63;;;3.40;;
26953;SDS011;14508;50.924;11.600;2023-06-04T05:23:09;5.85;;;3.00;;
26953;SDS011;14508;50.924;11.600;2023-06-04T05:25:40;5.80;;;2.97;;
26953;SDS011;14508;50.924;11.600;2023-06-04T05:28:09;7.13;;;2.83;;
26953;SDS011;14508;50.924;11.600;2023-06-04T05:30:39;4.30;;;2.60;;
26953;SDS011;14508;50.924;11.600;2023-06-04T05:33:08;4.93;;;2.88;;
26953;SDS011;14508;50.924;11.600;2023-06-04T05:35:51;7.47;;;2.67;;
26953;SDS011;14508;50.924;11.600;2023-06-04T05:38:20;5.72;;;2.65;;
26953;SDS011;14508;50.924;11.600;2023-06-04T05:40:55;6.07;;;2.40;;
26953;SDS011;14508;50.924;11.600;2023-06-04T05:43:26;9.07;;;2.28;;
26953;SDS011;14508;50.924;11.600;2023-06-04T05:45:54;5.03;;;2.75;;
26953;SDS011;14508;50.924;11.600;2023-06-04T05:48:22;7.60;;;2.55;;
26953;SDS011;14508;50.924;11.600;2023-06-04T05:50:51;7.55;;;2.45;;
26953;SDS011;14508;50.924;11.600;2023-06-04T05:53:19;6.78;;;2.67;;
26953;SDS011;14508;50.924;11.600;2023-06-04T05:55:48;3.40;;;1.98;;
26953;SDS011;14508;50.924;11.600;2023-06-04T05:58:18;6.90;;;2.15;;
26953;SDS011;14508;50.924;11.600;2023-06-04T06:00:46;6.32;;;2.30;;
26953;SDS011;14508;50.924;11.600;2023-06-04T06:03:15;4.32;;;2.30;;
26953;SDS011;14508;50.924;11.600;2023-06-04T06:05:46;13.50;;;3.33;;
26953;SDS011;14508;50.924;11.600;2023-06-04T06:08:14;6.35;;;2.55;;
26953;SDS011;14508;50.924;11.600;2023-06-04T06:10:42;6.13;;;2.63;;
26953;SDS011;14508;50.924;11.600;2023-06-04T06:13:10;7.57;;;2.10;;
26953;SDS011;14508;50.924;11.600;2023-06-04T06:15:39;9.02;;;3.30;;
26953;SDS011;14508;50.924;11.600;2023-06-04T06:18:07;5.55;;;2.60;;
26953;SDS011;14508;50.924;11.600;2023-06-04T06:20:35;5.68;;;2.55;;
26953;SDS011;14508;50.924;11.600;2023-06-04T06:23:05;5.85;;;2.47;;
26953;SDS011;14508;50.924;11.600;2023-06-04T06:25:36;7.05;;;2.92;;
26953;SDS011;14508;50.924;11.600;2023-06-04T06:28:12;6.38;;;3.03;;
26953;SDS011;14508;50.924;11.600;2023-06-04T06:30:42;4.18;;;2.40;;
26953;SDS011;14508;50.924;11.600;2023-06-04T06:33:10;9.77;;;2.92;;
26953;SDS011;14508;50.924;11.600;2023-06-04T06:35:39;9.35;;;3.20;;
26953;SDS011;14508;50.924;11.600;2023-06-04T06:38:07;9.43;;;3.28;;
26953;SDS011;14508;50.924;11.600;2023-06-04T06:40:35;8.32;;;3.08;;
26953;SDS011;14508;50.924;11.600;2023-06-04T06:43:03;6.95;;;3.13;;
26953;SDS011;14508;50.924;11.600;2023-06-04T06:45:30;6.28;;;3.22;;
26953;SDS011;14508;50.924;11.600;2023-06-04T06:48:00;8.60;;;3.13;;
26953;SDS011;14508;50.924;11.600;2023-06-04T06:50:28;9.82;;;3.20;;
26953;SDS011;14508;50.924;11.600;2023-06-04T06:52:56;6.72;;;3.17;;
26953;SDS011;14508;50.924;11.600;2023-06-04T06:55:23;7.30;;;3.33;;
26953;SDS011;14508;50.924;11.600;2023-06-04T06:57:51;8.15;;;3.15;;
26953;SDS011;14508;50.924;11.600;2023-06-04T07:00:22;6.55;;;2.88;;
26953;SDS011;14508;50.924;11.600;2023-06-04T07:02:51;8.88;;;3.42;;
26953;SDS011;14508;50.924;11.600;2023-06-04T07:05:20;5.72;;;3.22;;
26953;SDS011;14508;50.924;11.600;2023-06-04T07:07:48;14.85;;;2.75;;
26953;SDS011;14508;50.924;11.600;2023-06-04T07:10:16;5.45;;;2.60;;
26953;SDS011;14508;50.924;11.600;2023-06-04T07:12:44;7.95;;;3.22;;
26953;SDS011;14508;50.924;11.600;2023-06-04T07:15:12;8.68;;;2.55;;
26953;SDS011;14508;50.924;11.600;2023-06-04T07:17:40;4.80;;;2.38;;
26953;SDS011;14508;50.924;11.600;2023-06-04T07:20:08;5.20;;;2.53;;
26953;SDS011;14508;50.924;11.600;2023-06-04T07:22:37;7.30;;;2.83;;
26953;SDS011;14508;50.924;11.600;2023-06-04T07:25:06;3.72;;;2.58;;
26953;SDS011;14508;50.924;11.600;2023-06-04T07:27:34;13.85;;;3.30;;
26953;SDS011;14508;50.924;11.600;2023-06-04T07:30:03;10.10;;;2.92;;
26953;SDS011;14508;50.924;11.600;2023-06-04T07:32:33;8.32;;;2.40;;
26953;SDS011;14508;50.924;11.600;2023-06-04T07:35:02;4.07;;;2.20;;
26953;SDS011;14508;50.924;11.600;2023-06-04T07:37:33;8.55;;;2.72;;
26953;SDS011;14508;50.924;11.600;2023-06-04T07:40:02;6.45;;;2.15;;
26953;SDS011;14508;50.924;11.600;2023-06-04T07:42:32;4.82;;;2.33;;
26953;SDS011;14508;50.924;11.600;2023-06-04T07:45:00;3.75;;;2.47;;
26953;SDS011;14508;50.924;11.600;2023-06-04T07:47:28;8.63;;;2.35;;
26953;SDS011;14508;50.924;11.600;2023-06-04T07:49:56;3.67;;;2.25;;
26953;SDS011;14508;50.924;11.600;2023-06-04T07:52:29;5.03;;;1.80;;
26953;SDS011;14508;50.924;11.600;2023-06-04T07:54:57;4.93;;;1.92;;
26953;SDS011;14508;50.924;11.600;2023-06-04T07:57:26;7.45;;;1.63;;
26953;SDS011;14508;50.924;11.600;2023-06-04T07:59:54;3.92;;;1.80;;
26953;SDS011;14508;50.924;11.600;2023-06-04T08:02:23;4.38;;;1.98;;
26953;SDS011;14508;50.924;11.600;2023-06-04T08:04:54;3.42;;;1.70;;
26953;SDS011;14508;50.924;11.600;2023-06-04T08:07:22;4.82;;;1.60;;
26953;SDS011;14508;50.924;11.600;2023-06-04T08:09:51;6.70;;;1.58;;
26953;SDS011;14508;50.924;11.600;2023-06-04T08:12:19;7.47;;;1.92;;
26953;SDS011;14508;50.924;11.600;2023-06-04T08:14:48;2.10;;;1.30;;
26953;SDS011;14508;50.924;11.600;2023-06-04T08:17:16;2.42;;;1.40;;
26953;SDS011;14508;50.924;11.600;2023-06-04T08:19:44;4.60;;;1.30;;
26953;SDS011;14508;50.924;11.600;2023-06-04T08:22:12;7.35;;;1.48;;
26953;SDS011;14508;50.924;11.600;2023-06-04T08:24:40;1.40;;;1.00;;
26953;SDS011;14508;50.924;11.600;2023-06-04T08:27:08;4.38;;;1.80;;
26953;SDS011;14508;50.924;11.600;2023-06-04T08:29:36;9.02;;;2.83;;
26953;SDS011;14508;50.924;11.600;2023-06-04T08:32:07;4.72;;;1.33;;
26953;SDS011;14508;50.924;11.600;2023-06-04T08:34:35;2.60;;;1.10;;
26953;SDS011;14508;50.924;11.600;2023-06-04T08:37:03;3.80;;;1.58;;
26953;SDS011;14508;50.924;11.600;2023-06-04T08:39:32;2.53;;;1.20;;
26953;SDS011;14508;50.924;11.600;2023-06-04T08:42:01;5.80;;;1.08;;
26953;SDS011;14508;50.924;11.600;2023-06-04T08:44:31;1.58;;;0.80;;
26953;SDS011;14508;50.924;11.600;2023-06-04T08:47:01;3.67;;;0.85;;
26953;SDS011;14508;50.924;11.600;2023-06-04T08:49:33;4.47;;;1.17;;
26953;SDS011;14508;50.924;11.600;2023-06-04T08:52:03;3.92;;;1.25;;
26953;SDS011;14508;50.924;11.600;2023-06-04T08:54:32;6.50;;;1.25;;
26953;SDS011;14508;50.924;11.600;2023-06-04T08:57:00;2.55;;;0.95;;
26953;SDS011;14508;50.924;11.600;2023-06-04T08:59:29;5.22;;;1.48;;
26953;SDS011;14508;50.924;11.600;2023-06-04T09:01:57;9.85;;;3.45;;
26953;SDS011;14508;50.924;11.600;2023-06-04T09:04:26;2.58;;;1.33;;
26953;SDS011;14508;50.924;11.600;2023-06-04T09:06:55;2.50;;;1.00;;
26953;SDS011;14508;50.924;11.600;2023-06-04T09:09:29;2.05;;;0.88;;
26953;SDS011;14508;50.924;11.600;2023-06-04T09:11:58;2.88;;;1.00;;
26953;SDS011;14508;50.924;11.600;2023-06-04T09:14:31;4.85;;;0.85;;
26953;SDS011;14508;50.924;11.600;2023-06-04T09:16:59;1.45;;;0.90;;
26953;SDS011;14508;50.924;11.600;2023-06-04T09:19:26;2.50;;;0.80;;
26953;SDS011;14508;50.924;11.600;2023-06-04T09:21:56;4.35;;;1.13;;
26953;SDS011;14508;50.924;11.600;2023-06-04T09:24:38;1.83;;;1.00;;
26953;SDS011;14508;50.924;11.600;2023-06-04T09:27:10;2.03;;;1.13;;
26953;SDS011;14508;50.924;11.600;2023-06-04T09:29:39;0.85;;;0.70;;
26953;SDS011;14508;50.924;11.600;2023-06-04T09:32:07;4.30;;;1.13;;
26953;SDS011;14508;50.924;11.600;2023-06-04T09:34:35;3.70;;;1.08;;
26953;SDS011;14508;50.924;11.600;2023-06-04T09:37:13;3.17;;;1.17;;
26953;SDS011;14508;50.924;11.600;2023-06-04T09:39:42;3.05;;;1.63;;
26953;SDS011;14508;50.924;11.600;2023-06-04T09:42:10;3.35;;;1.45;;
26953;SDS011;14508;50.924;11.600;2023-06-04T09:44:42;3.22;;;0.93;;
26953;SDS011;14508;50.924;11.600;2023-06-04T09:47:11;7.32;;;1.10;;
26953;SDS011;14508;50.924;11.600;2023-06-04T09:49:40;7.65;;;1.25;;
26953;SDS011;14508;50.924;11.600;2023-06-04T09:52:09;2.33;;;1.30;;
26953;SDS011;14508;50.924;11.600;2023-06-04T09:54:39;4.18;;;1.17;;
26953;SDS011;14508;50.924;11.600;2023-06-04T09:57:13;2.58;;;1.23;;
26953;SDS011;14508;50.924;11.600;2023-06-04T09:59:43;6.00;;;1.53;;
26953;SDS011;14508;50.924;11.600;2023-06-04T10:02:12;2.55;;;1.30;;
26953;SDS011;14508;50.924;11.600;2023-06-04T10:04:41;4.82;;;1.50;;
26953;SDS011;14508;50.924;11.600;2023-06-04T10:07:11;6.18;;;1.50;;
26953;SDS011;14508;50.924;11.600;2023-06-04T10:09:39;2.70;;;1.80;;
26953;SDS011;14508;50.924;11.600;2023-06-04T10:12:13;2.03;;;1.33;;
26953;SDS011;14508;50.924;11.600;2023-06-04T10:14:44;4.40;;;1.48;;
26953;SDS011;14508;50.924;11.600;2023-06-04T10:17:20;11.40;;;1.50;;
26953;SDS011;14508;50.924;11.600;2023-06-04T10:19:51;5.88;;;2.85;;
26953;SDS011;14508;50.924;11.600;2023-06-04T10:22:22;6.25;;;2.13;;
26953;SDS011;14508;50.924;11.600;2023-06-04T10:24:50;2.50;;;1.42;;
26953;SDS011;14508;50.924;11.600;2023-06-04T10:27:18;3.15;;;1.48;;
26953;SDS011;14508;50.924;11.600;2023-06-04T10:29:49;6.53;;;1.50;;
26953;SDS011;14508;50.924;11.600;2023-06-04T10:32:18;8.23;;;1.83;;
26953;SDS011;14508;50.924;11.600;2023-06-04T10:34:47;7.95;;;1.52;;
26953;SDS011;14508;50.924;11.600;2023-06-04T10:37:18;5.65;;;1.83;;
26953;SDS011;14508;50.924;11.600;2023-06-04T10:39:51;6.63;;;1.85;;
26953;SDS011;14508;50.924;11.600;2023-06-04T10:42:20;3.38;;;1.85;;
26953;SDS011;14508;50.924;11.600;2023-06-04T10:44:49;2.90;;;1.30;;
26953;SDS011;14508;50.924;11.600;2023-06-04T10:47:22;3.38;;;1.20;;
26953;SDS011;14508;50.924;11.600;2023-06-04T10:49:51;2.65;;;1.20;;
26953;SDS011;14508;50.924;11.600;2023-06-04T10:52:21;3.78;;;1.67;;
26953;SDS011;14508;50.924;11.600;2023-06-04T10:54:49;3.13;;;1.48;;
26953;SDS011;14508;50.924;11.600;2023-06-04T10:57:21;3.33;;;1.85;;
26953;SDS011;14508;50.924;11.600;2023-06-04T10:59:55;2.17;;;1.48;;
26953;SDS011;14508;50.924;11.600;2023-06-04T11:02:24;4.95;;;1.42;;
26953;SDS011;14508;50.924;11.600;2023-06-04T11:05:00;3.40;;;1.50;;
26953;SDS011;14508;50.924;11.600;2023-06-04T11:07:41;6.90;;;1.58;;
26953;SDS011;14508;50.924;11.600;2023-06-04T11:10:11;3.95;;;1.70;;
26953;SDS011;14508;50.924;11.600;2023-06-04T11:12:42;3.30;;;2.20;;
26953;SDS011;14508;50.924;11.600;2023-06-04T11:15:11;3.63;;;2.28;;
26953;SDS011;14508;50.924;11.600;2023-06-04T11:17:48;1.85;;;1.58;;
26953;SDS011;14508;50.924;11.600;2023-06-04T11:20:17;4.35;;;1.67;;
26953;SDS011;14508;50.924;11.600;2023-06-04T11:22:50;2.58;;;1.23;;
26953;SDS011;14508;50.924;11.600;2023-06-04T11:25:19;2.17;;;1.60;;
26953;SDS011;14508;50.924;11.600;2023-06-04T11:27:53;2.78;;;1.48;;
26953;SDS011;14508;50.924;11.600;2023-06-04T11:30:22;2.53;;;1.55;;
26953;SDS011;14508;50.924;11.600;2023-06-04T11:32:50;6.70;;;2.03;;
26953;SDS011;14508;50.924;11.600;2023-06-04T11:35:26;3.10;;;1.88;;
26953;SDS011;14508;50.924;11.600;2023-06-04T11:37:55;6.55;;;2.60;;
26953;SDS011;14508;50.924;11.600;2023-06-04T11:40:24;9.13;;;2.22;;
26953;SDS011;14508;50.924;11.600;2023-06-04T11:42:54;4.70;;;1.92;;
26953;SDS011;14508;50.924;11.600;2023-06-04T11:45:22;3.83;;;2.40;;
26953;SDS011;14508;50.924;11.600;2023-06-04T11:47:52;14.30;;;5.93;;
26953;SDS011;14508;50.924;11.600;2023-06-04T11:50:22;3.42;;;1.95;;
26953;SDS011;14508;50.924;11.600;2023-06-04T11:52:54;5.25;;;1.67;;
26953;SDS011;14508;50.924;11.600;2023-06-04T11:55:22;3.92;;;1.63;;
26953;SDS011;14508;50.924;11.600;2023-06-04T11:57:51;4.43;;;1.52;;
26953;SDS011;14508;50.924;11.600;2023-06-04T12:00:20;2.03;;;1.38;;
26953;SDS011;14508;50.924;11.600;2023-06-04T12:02:49;1.60;;;1.50;;
26953;SDS011;14508;50.924;11.600;2023-06-04T12:05:20;3.38;;;1.48;;
26953;SDS011;14508;50.924;11.600;2023-06-04T12:07:50;3.90;;;1.42;;
26953;SDS011;14508;50.924;11.600;2023-06-04T12:10:19;3.10;;;1.27;;
26953;SDS011;14508;50.924;11.600;2023-06-04T12:12:53;5.10;;;1.80;;
26953;SDS011;14508;50.924;11.600;2023-06-04T12:15:23;4.93;;;1.67;;
26953;SDS011;14508;50.924;11.600;2023-06-04T12:17:51;4.60;;;1.35;;
26953;SDS011;14508;50.924;11.600;2023-06-04T12:20:30;5.32;;;1.73;;
26953;SDS011;14508;50.924;11.600;2023-06-04T12:23:00;3.40;;;1.67;;
26953;SDS011;14508;50.924;11.600;2023-06-04T12:25:28;2.10;;;1.38;;
26953;SDS011;14508;50.924;11.600;2023-06-04T12:27:57;7.15;;;1.58;;
26953;SDS011;14508;50.924;11.600;2023-06-04T12:30:35;3.33;;;1.25;;
26953;SDS011;14508;50.924;11.600;2023-06-04T12:33:04;4.05;;;1.77;;
26953;SDS011;14508;50.924;11.600;2023-06-04T12:35:32;4.03;;;1.65;;
26953;SDS011;14508;50.924;11.600;2023-06-04T12:38:02;7.38;;;1.73;;
26953;SDS011;14508;50.924;11.600;2023-06-04T12:40:30;7.82;;;1.55;;
26953;SDS011;14508;50.924;11.600;2023-06-04T12:42:58;2.13;;;1.35;;
26953;SDS011;14508;50.924;11.600;2023-06-04T12:45:26;3.72;;;1.70;;
26953;SDS011;14508;50.924;11.600;2023-06-04T12:47:55;2.13;;;1.40;;
26953;SDS011;14508;50.924;11.600;2023-06-04T12:50:23;2.88;;;1.30;;
26953;SDS011;14508;50.924;11.600;2023-06-04T12:52:51;1.80;;;1.20;;
26953;SDS011;14508;50.924;11.600;2023-06-04T12:55:19;7.15;;;1.20;;
26953;SDS011;14508;50.924;11.600;2023-06-04T12:57:47;4.05;;;1.33;;
26953;SDS011;14508;50.924;11.600;2023-06-04T13:00:15;3.15;;;2.00;;
26953;SDS011;14508;50.924;11.600;2023-06-04T13:02:44;3.88;;;1.40;;
26953;SDS011;14508;50.924;11.600;2023-06-04T13:05:14;2.85;;;1.40;;
26953;SDS011;14508;50.924;11.600;2023-06-04T13:07:42;3.58;;;1.52;;
26953;SDS011;14508;50.924;11.600;2023-06-04T13:10:10;8.13;;;1.73;;
26953;SDS011;14508;50.924;11.600;2023-06-04T13:12:38;2.28;;;1.50;;
26953;SDS011;14508;50.924;11.600;2023-06-04T13:15:06;10.18;;;1.45;;
26953;SDS011;14508;50.924;11.600;2023-06-04T13:17:34;1.90;;;1.20;;
26953;SDS011;14508;50.924;11.600;2023-06-04T13:20:02;3.38;;;1.27;;
26953;SDS011;14508;50.924;11.600;2023-06-04T13:22:32;3.53;;;1.17;;
26953;SDS011;14508;50.924;11.600;2023-06-04T13:25:00;3.50;;;1.23;;
26953;SDS011;14508;50.924;11.600;2023-06-04T13:27:28;3.42;;;1.50;;
26953;SDS011;14508;50.924;11.600;2023-06-04T13:29:56;2.22;;;1.50;;
26953;SDS011;14508;50.924;11.600;2023-06-04T13:32:24;1.13;;;0.80;;
26953;SDS011;14508;50.924;11.600;2023-06-04T13:34:52;2.28;;;1.13;;
26953;SDS011;14508;50.924;11.600;2023-06-04T13:37:20;2.15;;;1.40;;
26953;SDS011;14508;50.924;11.600;2023-06-04T13:39:49;2.05;;;1.05;;
26953;SDS011;14508;50.924;11.600;2023-06-04T13:42:17;3.78;;;1.45;;
26953;SDS011;14508;50.924;11.600;2023-06-04T13:44:45;3.47;;;1.20;;
26953;SDS011;14508;50.924;11.600;2023-06-04T13:47:13;5.40;;;1.00;;
26953;SDS011;14508;50.924;11.600;2023-06-04T13:49:43;1.90;;;1.10;;
26953;SDS011;14508;50.924;11.600;2023-06-04T13:52:11;2.85;;;1.10;;
26953;SDS011;14508;50.924;11.600;2023-06-04T13:54:39;3.40;;;1.33;;
26953;SDS011;14508;50.924;11.600;2023-06-04T13:57:08;2.42;;;1.02;;
26953;SDS011;14508;50.924;11.600;2023-06-04T13:59:37;2.42;;;1.10;;
26953;SDS011;14508;50.924;11.600;2023-06-04T14:02:05;2.97;;;1.08;;
26953;SDS011;14508;50.924;11.600;2023-06-04T14:04:33;6.15;;;1.20;;
26953;SDS011;14508;50.924;11.600;2023-06-04T14:07:02;1.98;;;1.10;;
26953;SDS011;14508;50.924;11.600;2023-06-04T14:09:31;2.70;;;1.02;;
26953;SDS011;14508;50.924;11.600;2023-06-04T14:12:00;2.25;;;0.90;;
26953;SDS011;14508;50.924;11.600;2023-06-04T14:14:30;2.83;;;1.20;;
26953;SDS011;14508;50.924;11.600;2023-06-04T14:17:02;3.35;;;1.17;;
26953;SDS011;14508;50.924;11.600;2023-06-04T14:19:31;5.35;;;1.33;;
26953;SDS011;14508;50.924;11.600;2023-06-04T14:21:59;18.38;;;1.45;;
26953;SDS011;14508;50.924;11.600;2023-06-04T14:24:27;4.22;;;1.13;;
26953;SDS011;14508;50.924;11.600;2023-06-04T14:26:56;1.58;;;1.02;;
26953;SDS011;14508;50.924;11.600;2023-06-04T14:29:24;2.83;;;0.93;;
26953;SDS011;14508;50.924;11.600;2023-06-04T14:31:53;4.57;;;1.40;;
26953;SDS011;14508;50.924;11.600;2023-06-04T14:34:22;2.80;;;1.52;;
26953;SDS011;14508;50.924;11.600;2023-06-04T14:36:49;2.17;;;1.33;;
26953;SDS011;14508;50.924;11.600;2023-06-04T14:39:17;3.42;;;1.05;;
26953;SDS011;14508;50.924;11.600;2023-06-04T14:41:48;2.03;;;1.25;;
26953;SDS011;14508;50.924;11.600;2023-06-04T14:44:16;2.35;;;1.17;;
26953;SDS011;14508;50.924;11.600;2023-06-04T14:46:45;3.20;;;0.80;;
26953;SDS011;14508;50.924;11.600;2023-06-04T14:49:15;2.13;;;1.05;;